createdAt,value
2023-04-26T00:00:11.603Z,3.10
2023-04-26T00:02:38.193Z,3.38
2023-04-26T00:05:05.407Z,3.00
2023-04-26T00:07:32.111Z,3.35
2023-04-26T00:09:58.586Z,4.15
2023-04-26T00:12:25.214Z,3.20
2023-04-26T00:14:51.710Z,3.88
2023-04-26T00:17:18.202Z,4.35
2023-04-26T00:19:44.651Z,3.90
2023-04-26T00:22:11.103Z,4.10
2023-04-26T00:24:37.602Z,3.08
2023-04-26T00:27:04.886Z,3.72
2023-04-26T00:29:31.437Z,3.25
2023-04-26T00:31:57.926Z,3.63
2023-04-26T00:34:24.455Z,3.45
2023-04-26T00:36:50.915Z,3.83
2023-04-26T00:39:17.404Z,3.50
2023-04-26T00:41:43.846Z,3.75
2023-04-26T00:44:10.358Z,3.50
2023-04-26T00:46:36.859Z,3.58
2023-04-26T00:49:03.555Z,3.92
2023-04-26T00:51:30.073Z,3.28
2023-04-26T00:53:57.026Z,3.47
2023-04-26T00:56:25.075Z,4.13
2023-04-26T00:58:52.168Z,3.80
2023-04-26T01:01:18.871Z,3.38
2023-04-26T01:03:46.133Z,3.60
2023-04-26T01:06:12.732Z,3.72
2023-04-26T01:08:39.634Z,4.32
2023-04-26T01:11:06.223Z,4.10
2023-04-26T01:13:33.194Z,3.92
2023-04-26T01:15:59.963Z,3.70
2023-04-26T01:18:26.858Z,4.22
2023-04-26T01:20:53.310Z,3.22
2023-04-26T01:23:19.799Z,3.60
2023-04-26T01:25:46.323Z,4.38
2023-04-26T01:28:12.812Z,3.38
2023-04-26T01:30:39.319Z,3.42
2023-04-26T01:33:05.900Z,3.67
2023-04-26T01:35:32.436Z,3.40
2023-04-26T01:37:58.941Z,3.55
2023-04-26T01:40:27.778Z,3.50
2023-04-26T01:42:54.356Z,4.30
2023-04-26T01:45:20.834Z,3.70
2023-04-26T01:48:06.291Z,3.63
2023-04-26T01:50:33.099Z,4.10
2023-04-26T01:52:59.585Z,3.60
2023-04-26T01:55:26.097Z,3.95
2023-04-26T01:57:52.545Z,3.72
2023-04-26T02:00:19.555Z,3.53
2023-04-26T02:02:49.082Z,4.63
2023-04-26T02:05:15.724Z,3.72
2023-04-26T02:07:42.242Z,3.70
2023-04-26T02:10:09.156Z,3.80
2023-04-26T02:12:35.637Z,4.55
2023-04-26T02:15:02.187Z,4.18
2023-04-26T02:17:28.773Z,4.60
2023-04-26T02:19:55.280Z,3.80
2023-04-26T02:22:21.750Z,4.03
2023-04-26T02:24:50.087Z,4.65
2023-04-26T02:27:16.541Z,4.40
2023-04-26T02:29:44.765Z,4.20
2023-04-26T02:32:13.179Z,4.00
2023-04-26T02:34:39.734Z,3.80
2023-04-26T02:37:06.442Z,4.40
2023-04-26T02:39:33.058Z,4.32
2023-04-26T02:41:59.608Z,3.92
2023-04-26T02:44:29.311Z,4.55
2023-04-26T02:46:56.475Z,4.28
2023-04-26T02:49:23.122Z,4.32
2023-04-26T02:51:49.634Z,3.72
2023-04-26T02:54:16.242Z,4.38
2023-04-26T02:56:42.689Z,4.18
2023-04-26T02:59:09.204Z,5.93
2023-04-26T03:01:35.795Z,4.90
2023-04-26T03:04:02.461Z,5.10
2023-04-26T03:06:29.066Z,4.80
2023-04-26T03:08:55.632Z,4.75
2023-04-26T03:11:22.133Z,4.68
2023-04-26T03:13:48.681Z,4.78
2023-04-26T03:16:15.425Z,4.68
2023-04-26T03:18:42.058Z,4.75
2023-04-26T03:21:09.300Z,5.03
2023-04-26T03:23:35.771Z,4.43
2023-04-26T03:26:02.326Z,4.25
2023-04-26T03:28:29.713Z,5.03
2023-04-26T03:30:56.397Z,5.13
2023-04-26T03:33:23.723Z,4.95
2023-04-26T03:35:50.283Z,4.53
2023-04-26T03:38:17.395Z,4.93
2023-04-26T03:40:44.953Z,4.72
2023-04-26T03:43:11.443Z,6.35
2023-04-26T03:45:38.352Z,6.05
2023-04-26T03:48:05.129Z,4.95
2023-04-26T03:50:31.664Z,5.35
2023-04-26T03:52:58.230Z,5.00
2023-04-26T03:55:24.878Z,5.75
2023-04-26T03:57:51.358Z,5.10
2023-04-26T04:00:17.918Z,5.55
2023-04-26T04:02:44.815Z,6.10
2023-04-26T04:05:19.099Z,5.30
2023-04-26T04:07:45.697Z,5.00
2023-04-26T04:10:13.575Z,5.38
2023-04-26T04:12:41.682Z,5.15
2023-04-26T04:15:08.963Z,5.50
2023-04-26T04:17:38.770Z,5.25
2023-04-26T04:20:06.445Z,4.85
2023-04-26T04:22:33.220Z,4.97
2023-04-26T04:24:59.697Z,5.32
2023-04-26T04:27:27.011Z,5.13
2023-04-26T04:29:53.509Z,6.65
2023-04-26T04:32:20.169Z,5.40
2023-04-26T04:34:48.319Z,4.93
2023-04-26T04:37:16.766Z,4.85
2023-04-26T04:39:44.088Z,5.35
2023-04-26T04:42:10.600Z,4.70
2023-04-26T04:44:37.310Z,5.05
2023-04-26T04:47:04.165Z,4.55
2023-04-26T04:49:30.762Z,5.15
2023-04-26T04:51:57.908Z,5.15
2023-04-26T04:54:25.209Z,4.60
2023-04-26T04:56:51.827Z,5.40
2023-04-26T04:59:19.337Z,5.35
2023-04-26T05:01:47.754Z,6.05
2023-04-26T05:04:15.855Z,5.03
2023-04-26T05:06:43.770Z,5.65
2023-04-26T05:09:10.446Z,4.70
2023-04-26T05:11:37.371Z,5.35
2023-04-26T05:14:05.277Z,5.60
2023-04-26T05:16:31.794Z,5.47
2023-04-26T05:19:00.172Z,5.32
2023-04-26T05:21:26.677Z,5.50
2023-04-26T05:23:53.449Z,6.78
2023-04-26T05:26:20.305Z,5.22
2023-04-26T05:29:15.269Z,6.75
2023-04-26T05:32:13.925Z,6.63
2023-04-26T05:34:41.349Z,5.55
2023-04-26T05:37:11.408Z,5.65
2023-04-26T05:39:37.925Z,5.75
2023-04-26T05:42:04.500Z,7.40
2023-04-26T05:44:31.751Z,5.68
2023-04-26T05:46:58.269Z,6.78
2023-04-26T05:49:26.304Z,6.35
2023-04-26T05:51:53.066Z,5.53
2023-04-26T05:54:19.563Z,6.18
2023-04-26T05:56:46.015Z,6.05
2023-04-26T05:59:12.561Z,6.43
2023-04-26T06:01:39.164Z,5.65
2023-04-26T06:04:06.101Z,5.93
2023-04-26T06:06:42.711Z,6.20
2023-04-26T06:09:09.216Z,6.07
2023-04-26T06:11:36.250Z,5.97
2023-04-26T06:14:02.725Z,6.97
2023-04-26T06:16:29.434Z,6.43
2023-04-26T06:18:56.008Z,7.07
2023-04-26T06:21:22.473Z,6.60
2023-04-26T06:23:49.049Z,6.28
2023-04-26T06:26:18.243Z,6.47
2023-04-26T06:28:46.540Z,6.97
2023-04-26T06:31:13.791Z,6.25
2023-04-26T06:33:40.842Z,6.85
2023-04-26T06:36:11.554Z,8.05
2023-04-26T06:38:38.124Z,7.70
2023-04-26T06:41:04.780Z,6.97
2023-04-26T06:43:32.336Z,6.45
2023-04-26T06:46:02.725Z,6.55
2023-04-26T06:48:29.247Z,6.80
2023-04-26T06:50:55.729Z,6.78
2023-04-26T06:53:23.168Z,7.65
2023-04-26T06:55:49.913Z,6.85
2023-04-26T06:58:16.376Z,6.15
2023-04-26T07:00:42.867Z,5.60
2023-04-26T07:03:09.464Z,6.15
2023-04-26T07:05:35.987Z,5.90
2023-04-26T07:08:02.478Z,5.78
2023-04-26T07:10:28.942Z,5.55
2023-04-26T07:12:55.421Z,5.20
2023-04-26T07:15:22.022Z,5.43
2023-04-26T07:17:48.544Z,6.22
2023-04-26T07:20:15.085Z,6.13
2023-04-26T07:22:41.657Z,6.45
2023-04-26T07:25:08.319Z,6.25
2023-04-26T07:27:34.765Z,6.07
2023-04-26T07:30:01.240Z,6.05
2023-04-26T07:32:27.855Z,6.07
2023-04-26T07:34:54.459Z,5.93
2023-04-26T07:37:20.948Z,5.55
2023-04-26T07:39:47.468Z,5.38
2023-04-26T07:42:14.052Z,5.32
2023-04-26T07:44:40.528Z,5.00
2023-04-26T07:47:13.058Z,4.57
2023-04-26T07:49:39.595Z,4.25
2023-04-26T07:52:06.067Z,4.38
2023-04-26T07:54:32.564Z,4.78
2023-04-26T07:56:58.999Z,3.97
2023-04-26T07:59:25.500Z,4.10
2023-04-26T08:01:52.052Z,4.20
2023-04-26T08:04:31.683Z,3.83
2023-04-26T08:06:58.294Z,4.97
2023-04-26T08:09:24.792Z,4.00
2023-04-26T08:11:51.313Z,4.30
2023-04-26T08:14:17.856Z,4.22
2023-04-26T08:16:44.413Z,4.30
2023-04-26T08:19:10.929Z,3.58
2023-04-26T08:21:37.393Z,3.90
2023-04-26T08:24:03.961Z,4.50
2023-04-26T08:26:30.498Z,4.80
2023-04-26T08:28:56.934Z,3.95
2023-04-26T08:31:23.511Z,4.05
2023-04-26T08:33:50.702Z,3.20
2023-04-26T08:36:17.417Z,4.80
2023-04-26T08:38:43.884Z,3.75
2023-04-26T08:41:13.421Z,4.00
2023-04-26T08:43:40.217Z,4.15
2023-04-26T08:46:10.918Z,4.35
2023-04-26T08:48:37.696Z,3.90
2023-04-26T08:51:04.785Z,3.08
2023-04-26T08:53:34.233Z,2.80
2023-04-26T08:56:02.120Z,2.85
2023-04-26T08:58:28.659Z,2.92
2023-04-26T09:00:55.509Z,3.25
2023-04-26T09:03:23.957Z,2.92
2023-04-26T09:05:50.755Z,3.08
2023-04-26T09:08:17.384Z,2.95
2023-04-26T09:10:44.261Z,3.35
2023-04-26T09:13:10.925Z,3.55
2023-04-26T09:15:37.710Z,2.90
2023-04-26T09:18:17.641Z,3.08
2023-04-26T09:20:45.470Z,2.53
2023-04-26T09:23:11.965Z,3.30
2023-04-26T09:25:38.509Z,3.05
2023-04-26T09:28:19.640Z,3.28
2023-04-26T09:30:46.229Z,2.92
2023-04-26T09:33:12.781Z,3.00
2023-04-26T09:35:41.508Z,3.60
2023-04-26T09:38:12.684Z,2.40
2023-04-26T09:40:48.186Z,2.92
2023-04-26T09:43:22.448Z,2.60
2023-04-26T09:45:51.267Z,2.92
2023-04-26T09:48:28.796Z,3.15
2023-04-26T09:50:57.005Z,3.22
2023-04-26T09:53:38.366Z,2.85
2023-04-26T09:56:11.212Z,3.05
2023-04-26T09:58:40.526Z,3.17
2023-04-26T10:01:08.718Z,2.75
2023-04-26T10:03:36.593Z,3.40
2023-04-26T10:06:04.244Z,4.28
2023-04-26T10:08:34.281Z,3.65
2023-04-26T10:11:01.220Z,3.30
2023-04-26T10:13:28.011Z,3.75
2023-04-26T10:15:55.498Z,3.05
2023-04-26T10:18:21.980Z,2.67
2023-04-26T10:20:52.064Z,3.35
2023-04-26T10:23:21.879Z,3.00
2023-04-26T10:25:48.928Z,2.85
2023-04-26T10:28:15.856Z,2.63
2023-04-26T10:31:00.726Z,3.10
2023-04-26T10:33:27.725Z,3.05
2023-04-26T10:36:00.316Z,2.67
2023-04-26T10:38:26.856Z,2.90
2023-04-26T10:40:55.108Z,2.75
2023-04-26T10:43:28.578Z,3.10
2023-04-26T10:45:55.249Z,3.40
2023-04-26T10:48:28.284Z,3.05
2023-04-26T10:51:00.782Z,2.65
2023-04-26T10:53:45.390Z,3.20
2023-04-26T10:56:32.626Z,2.75
2023-04-26T10:59:36.236Z,2.65
2023-04-26T11:02:12.647Z,2.38
2023-04-26T11:04:52.532Z,3.63
2023-04-26T11:07:39.087Z,2.60
2023-04-26T11:10:09.312Z,2.50
2023-04-26T11:12:35.822Z,2.85
2023-04-26T11:15:02.273Z,2.78
2023-04-26T11:17:28.806Z,2.83
2023-04-26T11:19:55.303Z,2.90
2023-04-26T11:22:22.477Z,2.78
2023-04-26T11:24:49.890Z,3.13
2023-04-26T11:27:16.356Z,3.03
2023-04-26T11:29:42.803Z,2.65
2023-04-26T11:32:09.356Z,2.67
2023-04-26T11:34:37.154Z,3.13
2023-04-26T11:37:05.206Z,2.72
2023-04-26T11:39:32.636Z,2.65
2023-04-26T11:42:12.648Z,3.05
2023-04-26T11:44:41.524Z,3.30
2023-04-26T11:47:09.351Z,3.20
2023-04-26T11:49:37.425Z,3.17
2023-04-26T11:52:05.106Z,2.60
2023-04-26T11:54:33.771Z,2.65
2023-04-26T11:57:00.792Z,2.92
2023-04-26T11:59:30.827Z,2.65
2023-04-26T12:01:58.262Z,2.83
2023-04-26T12:04:30.163Z,3.35
2023-04-26T12:06:57.991Z,3.25
2023-04-26T12:09:26.462Z,3.08
2023-04-26T12:12:00.290Z,3.08
2023-04-26T12:14:40.497Z,3.03
2023-04-26T12:17:07.792Z,3.13
2023-04-26T12:19:38.117Z,2.55
2023-04-26T12:22:06.081Z,3.25
2023-04-26T12:24:33.422Z,3.20
2023-04-26T12:27:02.328Z,3.20
2023-04-26T12:29:29.291Z,2.92
2023-04-26T12:31:56.619Z,2.97
2023-04-26T12:34:23.529Z,3.13
2023-04-26T12:36:50.177Z,2.90
2023-04-26T12:39:16.841Z,3.78
2023-04-26T12:41:44.916Z,3.10
2023-04-26T12:44:12.010Z,3.00
2023-04-26T12:46:38.869Z,3.42
2023-04-26T12:49:05.449Z,3.83
2023-04-26T12:51:31.910Z,3.70
2023-04-26T12:53:58.417Z,3.83
2023-04-26T12:56:25.149Z,3.70
2023-04-26T12:58:51.637Z,3.35
2023-04-26T13:01:18.182Z,3.53
2023-04-26T13:03:44.879Z,3.15
2023-04-26T13:06:12.031Z,3.10
2023-04-26T13:08:38.509Z,2.95
2023-04-26T13:11:04.975Z,3.33
2023-04-26T13:13:42.236Z,2.90
2023-04-26T13:16:10.745Z,3.60
2023-04-26T13:18:37.200Z,3.35
2023-04-26T13:21:03.917Z,3.17
2023-04-26T13:23:30.391Z,3.15
2023-04-26T13:25:56.865Z,3.13
2023-04-26T13:28:23.297Z,3.58
2023-04-26T13:30:49.887Z,3.40
2023-04-26T13:33:16.465Z,3.33
2023-04-26T13:35:42.988Z,3.42
2023-04-26T13:38:09.462Z,3.20
2023-04-26T13:40:37.634Z,3.47
2023-04-26T13:43:04.227Z,3.75
2023-04-26T13:45:30.763Z,3.42
2023-04-26T13:47:57.219Z,3.22
2023-04-26T13:50:23.733Z,4.38
2023-04-26T13:52:50.218Z,3.50
2023-04-26T13:55:16.702Z,4.03
2023-04-26T13:57:43.172Z,3.30
2023-04-26T14:00:10.197Z,3.30
2023-04-26T14:02:39.594Z,4.28
2023-04-26T14:05:06.696Z,3.50
2023-04-26T14:07:33.331Z,3.65
2023-04-26T14:09:59.913Z,3.70
2023-04-26T14:12:26.377Z,4.03
2023-04-26T14:14:52.878Z,3.55
2023-04-26T14:17:19.337Z,3.67
2023-04-26T14:19:45.816Z,3.75
2023-04-26T14:22:12.295Z,3.72
2023-04-26T14:24:39.056Z,4.13
2023-04-26T14:27:05.545Z,3.85
2023-04-26T14:29:32.018Z,4.22
2023-04-26T14:31:58.625Z,4.20
2023-04-26T14:34:25.220Z,4.05
2023-04-26T14:36:51.690Z,3.78
2023-04-26T14:39:18.169Z,3.58
2023-04-26T14:41:44.639Z,3.83
2023-04-26T14:44:11.138Z,4.22
2023-04-26T14:46:37.637Z,3.90
2023-04-26T14:49:04.233Z,3.90
2023-04-26T14:51:31.482Z,3.90
2023-04-26T14:53:57.931Z,3.90
2023-04-26T14:56:24.461Z,3.70
2023-04-26T14:58:50.936Z,3.72
2023-04-26T15:01:17.385Z,3.42
2023-04-26T15:03:44.146Z,3.80
2023-04-26T15:06:10.737Z,3.75
2023-04-26T15:08:37.222Z,4.03
2023-04-26T15:11:03.854Z,4.05
2023-04-26T15:13:30.324Z,3.88
2023-04-26T15:15:56.777Z,3.60
2023-04-26T15:18:23.305Z,4.80
2023-04-26T15:20:49.843Z,3.25
2023-04-26T15:23:16.596Z,3.60
2023-04-26T15:25:43.300Z,3.38
2023-04-26T15:28:09.803Z,3.95
2023-04-26T15:30:36.458Z,3.33
2023-04-26T15:33:03.374Z,3.70
2023-04-26T15:35:29.926Z,4.10
2023-04-26T15:37:56.363Z,4.20
2023-04-26T15:40:23.056Z,4.22
2023-04-26T15:42:49.604Z,4.20
2023-04-26T15:45:16.222Z,3.80
2023-04-26T15:47:42.849Z,4.05
2023-04-26T15:50:09.770Z,4.00
2023-04-26T15:52:39.178Z,3.80
2023-04-26T15:55:06.898Z,3.58
2023-04-26T15:57:34.099Z,4.40
2023-04-26T16:00:00.687Z,3.88
2023-04-26T16:02:27.476Z,4.05
2023-04-26T16:04:54.155Z,3.80
2023-04-26T16:07:20.625Z,4.18
2023-04-26T16:09:47.069Z,3.70
2023-04-26T16:12:13.522Z,3.75
2023-04-26T16:14:40.013Z,4.03
2023-04-26T16:17:06.454Z,4.20
2023-04-26T16:19:32.956Z,4.18
2023-04-26T16:21:59.392Z,4.30
2023-04-26T16:24:25.888Z,4.07
2023-04-26T16:26:52.362Z,4.75
2023-04-26T16:29:18.822Z,4.93
2023-04-26T16:31:45.354Z,4.65
2023-04-26T16:34:11.895Z,5.38
2023-04-26T16:36:38.327Z,5.35
2023-04-26T16:39:04.770Z,6.43
2023-04-26T16:41:31.285Z,6.57
2023-04-26T16:43:57.767Z,5.43
2023-04-26T16:46:24.322Z,5.43
2023-04-26T16:48:51.074Z,5.00
2023-04-26T16:51:17.593Z,5.60
2023-04-26T16:53:44.148Z,5.68
2023-04-26T16:56:10.710Z,5.18
2023-04-26T16:58:37.355Z,4.30
2023-04-26T17:01:03.846Z,4.55
2023-04-26T17:03:30.624Z,4.20
2023-04-26T17:05:57.215Z,4.80
2023-04-26T17:08:23.697Z,4.45
2023-04-26T17:10:50.178Z,4.82
2023-04-26T17:13:16.862Z,4.38
2023-04-26T17:15:43.524Z,4.00
2023-04-26T17:18:10.460Z,3.78
2023-04-26T17:20:37.031Z,4.07
2023-04-26T17:23:04.206Z,3.65
2023-04-26T17:25:31.652Z,4.20
2023-04-26T17:27:58.362Z,3.90
2023-04-26T17:30:24.876Z,3.78
2023-04-26T17:32:51.350Z,3.72
2023-04-26T17:35:17.891Z,3.85
2023-04-26T17:37:45.153Z,3.83
2023-04-26T17:40:11.904Z,3.35
2023-04-26T17:42:38.368Z,3.83
2023-04-26T17:45:05.418Z,3.55
2023-04-26T17:47:32.017Z,3.25
2023-04-26T17:49:59.000Z,3.10
2023-04-26T17:52:25.468Z,3.70
2023-04-26T17:54:51.994Z,3.15
2023-04-26T17:57:18.564Z,2.88
2023-04-26T17:59:45.070Z,3.42
2023-04-26T18:02:11.635Z,3.22
2023-04-26T18:04:38.452Z,3.00
2023-04-26T18:07:05.275Z,3.20
2023-04-26T18:09:31.749Z,2.97
2023-04-26T18:11:58.224Z,3.60
2023-04-26T18:14:24.754Z,3.17
2023-04-26T18:16:51.286Z,2.55
2023-04-26T18:19:18.018Z,2.75
2023-04-26T18:21:44.961Z,2.50
2023-04-26T18:24:11.430Z,2.25
2023-04-26T18:26:39.068Z,2.38
2023-04-26T18:29:06.280Z,2.30
2023-04-26T18:31:33.643Z,2.20
2023-04-26T18:34:00.118Z,2.20
2023-04-26T18:36:26.581Z,2.25
2023-04-26T18:38:53.107Z,2.28
2023-04-26T18:41:19.632Z,2.33
2023-04-26T18:43:46.093Z,2.40
2023-04-26T18:46:12.715Z,2.28
2023-04-26T18:48:39.176Z,2.53
2023-04-26T18:51:05.703Z,2.10
2023-04-26T18:53:32.211Z,2.10
2023-04-26T18:55:58.764Z,2.33
2023-04-26T18:58:25.239Z,2.47
2023-04-26T19:00:51.718Z,3.10
2023-04-26T19:03:18.462Z,2.90
2023-04-26T19:05:45.218Z,2.33
2023-04-26T19:08:11.706Z,2.10
2023-04-26T19:10:38.163Z,2.90
2023-04-26T19:13:05.106Z,2.42
2023-04-26T19:15:33.158Z,2.30
2023-04-26T19:17:59.891Z,2.75
2023-04-26T19:20:26.399Z,2.90
2023-04-26T19:22:53.249Z,2.42
2023-04-26T19:25:21.801Z,2.50
2023-04-26T19:27:49.184Z,2.45
2023-04-26T19:30:15.828Z,9.68
2023-04-26T19:32:42.778Z,7.22
2023-04-26T19:35:09.459Z,7.40
2023-04-26T19:37:35.952Z,4.85
2023-04-26T19:40:03.384Z,3.70
2023-04-26T19:42:29.890Z,4.90
2023-04-26T19:44:57.569Z,3.42
2023-04-26T19:47:24.037Z,4.22
2023-04-26T19:49:50.478Z,3.60
2023-04-26T19:52:16.988Z,3.28
2023-04-26T19:54:46.970Z,3.20
2023-04-26T19:57:13.494Z,3.13
2023-04-26T19:59:40.015Z,3.42
2023-04-26T20:02:06.635Z,3.55
2023-04-26T20:04:33.296Z,3.35
2023-04-26T20:07:00.010Z,2.92
2023-04-26T20:09:26.441Z,3.05
2023-04-26T20:11:54.269Z,2.78
2023-04-26T20:14:20.718Z,2.83
2023-04-26T20:16:47.345Z,3.17
2023-04-26T20:19:14.566Z,3.35
2023-04-26T20:21:41.960Z,3.30
2023-04-26T20:24:08.647Z,3.50
2023-04-26T20:26:35.209Z,2.90
2023-04-26T20:29:01.773Z,3.28
2023-04-26T20:31:28.253Z,3.15
2023-04-26T20:33:54.768Z,3.13
2023-04-26T20:36:21.703Z,3.25
2023-04-26T20:38:48.175Z,3.50
2023-04-26T20:41:14.669Z,4.07
2023-04-26T20:43:41.158Z,3.25
2023-04-26T20:46:07.756Z,3.70
2023-04-26T20:48:34.286Z,3.08
2023-04-26T20:51:00.850Z,3.85
2023-04-26T20:53:27.397Z,4.15
2023-04-26T20:55:54.054Z,3.63
2023-04-26T20:58:20.530Z,3.67
2023-04-26T21:00:49.295Z,3.38
2023-04-26T21:03:15.888Z,4.00
2023-04-26T21:05:42.430Z,3.33
2023-04-26T21:08:08.865Z,4.10
2023-04-26T21:10:35.315Z,4.30
2023-04-26T21:13:01.836Z,3.40
2023-04-26T21:15:28.366Z,3.58
2023-04-26T21:17:54.886Z,3.95
2023-04-26T21:20:21.428Z,3.90
2023-04-26T21:22:47.864Z,3.80
2023-04-26T21:25:14.454Z,4.68
2023-04-26T21:27:40.936Z,4.53
2023-04-26T21:30:08.011Z,4.47
2023-04-26T21:32:34.977Z,4.50
2023-04-26T21:35:01.488Z,4.22
2023-04-26T21:37:27.926Z,4.65
2023-04-26T21:39:54.400Z,4.13
2023-04-26T21:42:20.828Z,4.50
2023-04-26T21:44:47.262Z,4.13
2023-04-26T21:47:13.691Z,4.80
2023-04-26T21:49:40.145Z,5.13
2023-04-26T21:52:06.618Z,4.55
2023-04-26T21:54:33.103Z,4.45
2023-04-26T21:56:59.567Z,4.28
2023-04-26T21:59:26.032Z,4.63
2023-04-26T22:01:52.546Z,4.43
2023-04-26T22:04:19.273Z,5.18
2023-04-26T22:06:45.808Z,4.95
2023-04-26T22:09:12.454Z,4.82
2023-04-26T22:11:39.682Z,5.18
2023-04-26T22:14:06.205Z,4.35
2023-04-26T22:16:32.692Z,4.80
2023-04-26T22:18:59.198Z,4.85
2023-04-26T22:21:25.775Z,4.90
2023-04-26T22:23:52.415Z,6.05
2023-04-26T22:26:18.914Z,5.22
2023-04-26T22:28:45.378Z,4.38
2023-04-26T22:31:11.827Z,4.82
2023-04-26T22:33:38.316Z,4.97
2023-04-26T22:36:05.152Z,4.57
2023-04-26T22:38:31.660Z,4.35
2023-04-26T22:40:58.135Z,4.47
2023-04-26T22:43:24.604Z,4.43
2023-04-26T22:45:51.073Z,4.40
2023-04-26T22:48:17.608Z,5.05
2023-04-26T22:50:44.096Z,3.88
2023-04-26T22:53:10.604Z,3.97
2023-04-26T22:55:37.022Z,3.92
2023-04-26T22:58:03.506Z,4.00
2023-04-26T23:00:30.062Z,4.32
2023-04-26T23:02:56.639Z,4.07
2023-04-26T23:05:23.203Z,3.90
2023-04-26T23:07:49.740Z,3.60
2023-04-26T23:10:16.257Z,3.30
2023-04-26T23:12:42.730Z,4.22
2023-04-26T23:15:09.631Z,3.80
2023-04-26T23:17:36.150Z,3.25
2023-04-26T23:20:03.352Z,4.38
2023-04-26T23:22:29.832Z,3.83
2023-04-26T23:24:56.265Z,4.07
2023-04-26T23:27:22.760Z,4.60
2023-04-26T23:29:50.107Z,4.60
2023-04-26T23:32:16.529Z,4.55
2023-04-26T23:34:42.974Z,4.38
2023-04-26T23:37:09.455Z,4.70
2023-04-26T23:39:36.088Z,5.05
2023-04-26T23:42:02.863Z,4.85
2023-04-26T23:44:29.422Z,3.90
2023-04-26T23:46:56.058Z,4.20
2023-04-26T23:49:22.691Z,4.43
2023-04-26T23:51:52.152Z,4.30
2023-04-26T23:54:18.662Z,5.22
2023-04-26T23:56:45.254Z,4.88
2023-04-26T23:59:12.107Z,5.55
